Time;durP1;ratioP1;P1;durP2;ratioP2;P2;SDS_P1;SDS_P2;PMS_P1;PMS_P2;Temp;Humidity;BMP_temperature;BMP_pressure;BME280_temperature;BME280_humidity;BME280_pressure;Samples;Min_cycle;Max_cycle;Signal;HPM_P1;HPM_P2
2023/09/09 00:02:18;;;;;;;5.53;4.28;;;;;;;;;;5040851;28;20024;-78
2023/09/09 00:04:44;;;;;;;8.13;4.05;;;;;;;;;;5045679;28;20048;-80
2023/09/09 00:07:11;;;;;;;6.15;4.00;;;;;;;;;;5048702;28;20028;-80
2023/09/09 00:09:37;;;;;;;6.10;3.95;;;;;;;;;;5046936;28;20025;-77
2023/09/09 00:12:03;;;;;;;5.00;4.20;;;;;;;;;;5048801;28;20094;-77
2023/09/09 00:14:29;;;;;;;6.85;4.65;;;;;;;;;;5031551;28;21324;-80
2023/09/09 00:16:54;;;;;;;10.75;4.85;;;;;;;;;;5031405;28;20024;-80
2023/09/09 00:19:24;;;;;;;6.32;4.40;;;;;;;;;;5030993;28;20101;-78
2023/09/09 00:21:49;;;;;;;7.78;4.85;;;;;;;;;;5031477;28;20029;-78
2023/09/09 00:24:15;;;;;;;11.13;5.50;;;;;;;;;;5049500;28;20062;-78
2023/09/09 00:26:40;;;;;;;7.68;5.18;;;;;;;;;;5051937;28;20033;-80
2023/09/09 00:29:06;;;;;;;8.80;5.18;;;;;;;;;;5059038;28;20028;-80
2023/09/09 00:31:32;;;;;;;8.77;5.65;;;;;;;;;;5064180;28;20024;-81
2023/09/09 00:33:57;;;;;;;8.85;4.82;;;;;;;;;;5044157;28;20407;-79
2023/09/09 00:36:22;;;;;;;7.70;5.18;;;;;;;;;;5059878;28;20634;-80
2023/09/09 00:38:47;;;;;;;9.40;5.15;;;;;;;;;;5063448;28;20075;-77
2023/09/09 00:41:15;;;;;;;8.27;4.60;;;;;;;;;;5063767;28;20524;-79
2023/09/09 00:43:41;;;;;;;6.90;4.25;;;;;;;;;;5044068;28;20028;-80
2023/09/09 00:46:07;;;;;;;7.20;4.70;;;;;;;;;;5061866;28;21426;-79
2023/09/09 00:48:32;;;;;;;10.57;5.63;;;;;;;;;;5044621;28;20036;-78
2023/09/09 00:50:57;;;;;;;7.57;5.15;;;;;;;;;;5068459;28;20223;-78
2023/09/09 00:53:24;;;;;;;7.93;5.10;;;;;;;;;;5069050;28;20024;-78
2023/09/09 00:55:50;;;;;;;7.20;4.85;;;;;;;;;;5064526;28;20052;-80
2023/09/09 00:58:16;;;;;;;7.82;4.75;;;;;;;;;;5064537;28;20052;-79
2023/09/09 01:00:41;;;;;;;7.32;4.25;;;;;;;;;;5063452;28;20154;-80
2023/09/09 01:03:09;;;;;;;10.40;4.60;;;;;;;;;;5065198;28;20040;-79
2023/09/09 01:05:36;;;;;;;6.53;4.65;;;;;;;;;;5063714;28;20024;-79
2023/09/09 01:08:01;;;;;;;9.63;5.90;;;;;;;;;;5048951;28;20040;-81
2023/09/09 01:10:27;;;;;;;7.13;5.10;;;;;;;;;;5067256;28;20036;-80
2023/09/09 01:12:52;;;;;;;7.97;5.15;;;;;;;;;;5065899;28;20111;-81
2023/09/09 01:15:17;;;;;;;9.40;4.50;;;;;;;;;;5067429;28;20039;-80
2023/09/09 01:17:43;;;;;;;6.38;4.55;;;;;;;;;;5071869;28;20063;-81
2023/09/09 01:20:14;;;;;;;8.70;4.97;;;;;;;;;;5071625;28;20045;-81
2023/09/09 01:22:43;;;;;;;5.72;4.68;;;;;;;;;;5073160;28;20043;-80
2023/09/09 01:25:09;;;;;;;5.93;4.70;;;;;;;;;;5073784;28;20665;-81
2023/09/09 01:27:35;;;;;;;8.82;4.78;;;;;;;;;;5074683;28;20071;-80
2023/09/09 01:30:00;;;;;;;8.10;4.65;;;;;;;;;;5073508;28;20032;-81
2023/09/09 01:32:26;;;;;;;8.77;4.88;;;;;;;;;;5072666;28;20033;-80
2023/09/09 01:34:51;;;;;;;9.00;5.10;;;;;;;;;;5073595;28;20036;-81
2023/09/09 01:37:18;;;;;;;7.18;4.65;;;;;;;;;;5056311;28;20056;-80
2023/09/09 01:39:44;;;;;;;10.02;5.43;;;;;;;;;;5054341;28;20040;-80
2023/09/09 01:42:09;;;;;;;8.32;5.00;;;;;;;;;;5074483;28;20028;-80
2023/09/09 01:44:34;;;;;;;8.13;5.32;;;;;;;;;;5073248;28;20028;-80
2023/09/09 01:47:00;;;;;;;8.13;4.93;;;;;;;;;;5084978;28;20024;-80
2023/09/09 01:49:25;;;;;;;9.00;5.57;;;;;;;;;;5057511;28;20036;-80
2023/09/09 01:51:50;;;;;;;7.40;5.28;;;;;;;;;;5054778;28;20045;-80
2023/09/09 01:54:15;;;;;;;7.55;5.50;;;;;;;;;;5074846;28;20041;-80
2023/09/09 01:56:41;;;;;;;8.18;5.30;;;;;;;;;;5075682;28;20052;-80
2023/09/09 01:59:06;;;;;;;9.57;5.05;;;;;;;;;;5068085;28;20029;-80
2023/09/09 02:01:32;;;;;;;7.18;4.97;;;;;;;;;;5074018;28;20032;-80
2023/09/09 02:03:57;;;;;;;8.95;5.80;;;;;;;;;;5068481;28;20516;-81
2023/09/09 02:06:22;;;;;;;9.52;4.43;;;;;;;;;;5048679;28;20957;-80
2023/09/09 02:08:47;;;;;;;8.55;5.03;;;;;;;;;;5066224;28;20056;-81
2023/09/09 02:11:13;;;;;;;6.30;4.60;;;;;;;;;;5065563;28;20055;-81
2023/09/09 02:13:38;;;;;;;9.27;5.00;;;;;;;;;;5062085;28;20101;-80
2023/09/09 02:16:07;;;;;;;6.47;4.60;;;;;;;;;;5062858;28;20032;-81
2023/09/09 02:18:32;;;;;;;7.68;5.47;;;;;;;;;;5048541;28;20032;-81
2023/09/09 02:20:59;;;;;;;8.07;5.15;;;;;;;;;;5065264;28;20060;-80
2023/09/09 02:23:24;;;;;;;6.15;4.22;;;;;;;;;;5064116;28;20937;-79
2023/09/09 02:25:49;;;;;;;7.07;4.40;;;;;;;;;;5065639;28;20478;-80
2023/09/09 02:28:15;;;;;;;8.80;4.70;;;;;;;;;;5046816;28;20113;-80
2023/09/09 02:30:44;;;;;;;11.27;4.30;;;;;;;;;;5064650;28;20029;-81
2023/09/09 02:33:09;;;;;;;6.80;4.40;;;;;;;;;;5067008;28;20078;-81
2023/09/09 02:35:34;;;;;;;8.50;4.47;;;;;;;;;;5070405;28;20044;-80
2023/09/09 02:38:00;;;;;;;8.30;5.45;;;;;;;;;;5071059;28;20040;-80
2023/09/09 02:40:25;;;;;;;10.98;6.22;;;;;;;;;;5071693;28;20029;-80
2023/09/09 02:42:51;;;;;;;8.63;4.78;;;;;;;;;;5071120;28;20657;-80
2023/09/09 02:45:16;;;;;;;10.27;4.80;;;;;;;;;;5069363;28;20106;-80
2023/09/09 02:47:41;;;;;;;7.88;5.05;;;;;;;;;;5071742;28;20150;-80
2023/09/09 02:50:07;;;;;;;8.98;5.38;;;;;;;;;;5070931;28;20029;-79
2023/09/09 02:52:32;;;;;;;6.65;4.95;;;;;;;;;;5069675;28;20052;-79
2023/09/09 02:54:58;;;;;;;8.65;4.57;;;;;;;;;;5069394;28;20036;-78
2023/09/09 02:57:23;;;;;;;6.72;4.70;;;;;;;;;;5070496;28;20056;-80
2023/09/09 02:59:49;;;;;;;9.55;5.10;;;;;;;;;;5070345;28;20129;-79
2023/09/09 03:02:15;;;;;;;8.43;5.05;;;;;;;;;;5069977;28;20033;-79
2023/09/09 03:04:40;;;;;;;7.10;5.18;;;;;;;;;;5069360;28;20032;-79
2023/09/09 03:07:05;;;;;;;8.90;5.15;;;;;;;;;;5070142;28;20028;-79
2023/09/09 03:09:35;;;;;;;8.50;4.65;;;;;;;;;;5092697;22;20431;-88
2023/09/09 03:12:02;;;;;;;8.98;5.45;;;;;;;;;;5044513;28;20162;-87
2023/09/09 03:14:28;;;;;;;8.20;5.53;;;;;;;;;;5047998;28;20123;-88
2023/09/09 03:16:53;;;;;;;8.98;5.60;;;;;;;;;;5052527;28;20202;-87
2023/09/09 03:19:19;;;;;;;8.75;5.57;;;;;;;;;;5053991;28;20029;-87
2023/09/09 03:21:45;;;;;;;11.38;6.25;;;;;;;;;;5035520;28;20061;-85
2023/09/09 03:24:11;;;;;;;9.38;4.93;;;;;;;;;;5052625;28;20029;-86
2023/09/09 03:26:36;;;;;;;7.53;5.18;;;;;;;;;;5053093;28;20013;-84
2023/09/09 03:29:02;;;;;;;9.27;5.63;;;;;;;;;;5050030;28;20286;-85
2023/09/09 03:31:27;;;;;;;7.95;5.55;;;;;;;;;;5033480;28;20057;-84
2023/09/09 03:33:52;;;;;;;10.13;6.22;;;;;;;;;;5050863;28;20036;-86
2023/09/09 03:36:18;;;;;;;7.90;5.88;;;;;;;;;;5051246;28;20021;-85
2023/09/09 03:38:43;;;;;;;10.35;6.35;;;;;;;;;;5035634;28;20112;-85
2023/09/09 03:41:09;;;;;;;8.63;5.95;;;;;;;;;;5052225;28;20028;-85
2023/09/09 03:43:36;;;;;;;10.50;6.45;;;;;;;;;;5048292;28;20051;-85
2023/09/09 03:46:01;;;;;;;8.52;5.78;;;;;;;;;;5049807;28;20032;-85
2023/09/09 03:48:27;;;;;;;12.88;6.18;;;;;;;;;;5032789;28;20029;-85
2023/09/09 03:51:02;;;;;;;6.63;5.05;;;;;;;;;;5051577;28;20044;-85
2023/09/09 03:53:28;;;;;;;8.57;6.00;;;;;;;;;;5050002;28;20054;-85
2023/09/09 03:55:54;;;;;;;8.93;6.00;;;;;;;;;;5051127;28;20376;-84
2023/09/09 03:58:20;;;;;;;14.48;5.93;;;;;;;;;;5047822;28;20041;-85
2023/09/09 04:00:46;;;;;;;11.02;6.32;;;;;;;;;;5050945;28;20029;-84
2023/09/09 04:03:12;;;;;;;8.93;6.20;;;;;;;;;;5050363;28;20028;-86
2023/09/09 04:05:38;;;;;;;8.52;5.57;;;;;;;;;;5049470;28;20057;-85
2023/09/09 04:08:08;;;;;;;6.85;5.13;;;;;;;;;;5043302;28;20068;-86
2023/09/09 04:10:34;;;;;;;7.63;5.45;;;;;;;;;;5047806;28;20032;-85
2023/09/09 04:12:59;;;;;;;8.32;6.35;;;;;;;;;;5049230;28;20025;-85
2023/09/09 04:15:24;;;;;;;11.52;6.97;;;;;;;;;;5035653;28;20032;-86
2023/09/09 04:17:50;;;;;;;8.02;5.72;;;;;;;;;;5039798;28;20036;-86
2023/09/09 04:20:15;;;;;;;9.73;6.18;;;;;;;;;;5046906;28;20056;-86
2023/09/09 04:22:41;;;;;;;8.88;5.55;;;;;;;;;;5047247;28;20071;-86
2023/09/09 04:25:06;;;;;;;8.35;5.72;;;;;;;;;;5045882;28;20025;-86
2023/09/09 04:27:32;;;;;;;9.85;6.35;;;;;;;;;;5049447;28;20430;-85
2023/09/09 04:29:57;;;;;;;8.63;5.97;;;;;;;;;;5048774;28;20278;-86
2023/09/09 04:32:23;;;;;;;8.27;5.43;;;;;;;;;;5037901;28;20112;-85
2023/09/09 04:34:48;;;;;;;11.57;5.85;;;;;;;;;;5046441;28;20849;-85
2023/09/09 04:37:14;;;;;;;9.15;5.55;;;;;;;;;;5028788;28;20787;-86
2023/09/09 04:39:39;;;;;;;9.98;5.32;;;;;;;;;;5045473;28;20029;-86
2023/09/09 04:42:05;;;;;;;10.80;5.60;;;;;;;;;;5046495;28;20083;-85
2023/09/09 04:44:30;;;;;;;9.07;5.43;;;;;;;;;;5045818;28;20037;-85
2023/09/09 04:46:56;;;;;;;8.70;6.50;;;;;;;;;;5044098;28;20032;-85
2023/09/09 04:49:22;;;;;;;9.15;6.03;;;;;;;;;;5029724;28;20114;-85
2023/09/09 04:51:48;;;;;;;8.02;5.68;;;;;;;;;;5045101;28;20029;-85
2023/09/09 04:54:13;;;;;;;8.52;5.55;;;;;;;;;;5049226;28;20037;-85
2023/09/09 04:56:39;;;;;;;9.77;5.22;;;;;;;;;;5048714;28;20036;-85
2023/09/09 04:59:04;;;;;;;8.68;4.85;;;;;;;;;;5049746;28;20028;-85
2023/09/09 05:01:30;;;;;;;7.20;5.65;;;;;;;;;;5033075;28;20060;-85
2023/09/09 05:03:55;;;;;;;6.70;4.93;;;;;;;;;;5047422;28;20052;-85
2023/09/09 05:06:20;;;;;;;7.45;5.75;;;;;;;;;;5051929;28;20057;-85
2023/09/09 05:08:46;;;;;;;9.38;6.40;;;;;;;;;;5046372;28;20059;-84
2023/09/09 05:11:11;;;;;;;9.02;5.93;;;;;;;;;;5044594;28;20112;-85
2023/09/09 05:13:37;;;;;;;9.85;6.00;;;;;;;;;;5043653;28;20079;-86
2023/09/09 05:16:02;;;;;;;8.15;5.85;;;;;;;;;;5023264;28;20025;-85
2023/09/09 05:18:28;;;;;;;9.63;6.10;;;;;;;;;;5025206;28;20240;-85
2023/09/09 05:20:53;;;;;;;8.52;5.53;;;;;;;;;;5045364;28;20471;-85
2023/09/09 05:23:19;;;;;;;8.65;6.40;;;;;;;;;;5042252;28;20028;-85
2023/09/09 05:25:44;;;;;;;9.23;5.50;;;;;;;;;;5042308;28;20024;-85
2023/09/09 05:28:10;;;;;;;8.98;6.40;;;;;;;;;;5044935;28;20033;-85
2023/09/09 05:30:40;;;;;;;12.52;6.60;;;;;;;;;;5043759;28;20376;-85
2023/09/09 05:33:05;;;;;;;11.02;6.43;;;;;;;;;;5042555;28;20087;-85
2023/09/09 05:35:30;;;;;;;9.73;6.43;;;;;;;;;;5038767;28;20024;-86
2023/09/09 05:37:56;;;;;;;6.82;4.80;;;;;;;;;;5030276;28;20055;-86
2023/09/09 05:40:21;;;;;;;8.93;6.00;;;;;;;;;;5032950;28;20025;-85
2023/09/09 05:42:46;;;;;;;11.23;6.38;;;;;;;;;;5056398;28;20033;-85
2023/09/09 05:45:12;;;;;;;9.20;6.57;;;;;;;;;;5065963;28;20033;-84
2023/09/09 05:47:37;;;;;;;7.85;5.70;;;;;;;;;;5062269;28;20033;-86
2023/09/09 05:50:05;;;;;;;8.73;6.20;;;;;;;;;;5052940;28;20088;-86
2023/09/09 05:53:21;;;;;;;10.55;7.10;;;;;;;;;;5059129;28;20123;-87
2023/09/09 05:55:47;;;;;;;11.15;6.88;;;;;;;;;;5051791;28;20488;-86
2023/09/09 05:58:12;;;;;;;8.93;6.43;;;;;;;;;;5050905;28;20178;-85
2023/09/09 06:00:38;;;;;;;10.15;6.10;;;;;;;;;;5030424;28;20048;-85
2023/09/09 06:03:03;;;;;;;8.63;6.55;;;;;;;;;;5042788;28;20480;-84
2023/09/09 06:05:29;;;;;;;8.55;5.97;;;;;;;;;;5043540;28;20028;-85
2023/09/09 06:07:56;;;;;;;13.82;7.13;;;;;;;;;;5028483;28;20105;-85
2023/09/09 06:10:21;;;;;;;12.50;6.78;;;;;;;;;;5041070;28;20310;-86
2023/09/09 06:12:47;;;;;;;8.63;6.03;;;;;;;;;;5049528;28;20135;-85
2023/09/09 06:15:12;;;;;;;8.07;6.22;;;;;;;;;;5046134;28;20025;-85
2023/09/09 06:17:39;;;;;;;9.77;6.57;;;;;;;;;;5050702;28;20090;-85
2023/09/09 06:20:06;;;;;;;8.75;6.30;;;;;;;;;;5049245;28;20408;-86
2023/09/09 06:22:34;;;;;;;8.02;6.00;;;;;;;;;;5046981;28;20300;-86
2023/09/09 06:24:59;;;;;;;11.90;6.47;;;;;;;;;;5045119;28;20021;-85
2023/09/09 06:27:24;;;;;;;8.88;6.40;;;;;;;;;;5029999;28;20361;-85
2023/09/09 06:29:50;;;;;;;8.55;5.93;;;;;;;;;;5048257;28;20045;-85
2023/09/09 06:32:15;;;;;;;9.20;6.13;;;;;;;;;;5047291;28;20123;-85
2023/09/09 06:34:40;;;;;;;8.48;6.03;;;;;;;;;;5046607;28;20112;-85
2023/09/09 06:37:06;;;;;;;7.75;5.75;;;;;;;;;;5029755;28;20048;-86
2023/09/09 06:39:31;;;;;;;12.82;5.47;;;;;;;;;;5046884;28;20305;-85
2023/09/09 06:41:56;;;;;;;7.75;5.78;;;;;;;;;;5044546;28;20032;-86
2023/09/09 06:44:22;;;;;;;6.68;5.15;;;;;;;;;;5049487;28;20032;-86
2023/09/09 06:46:47;;;;;;;9.35;5.60;;;;;;;;;;5047467;28;20221;-86
2023/09/09 06:49:13;;;;;;;7.38;5.03;;;;;;;;;;5030299;28;20032;-85
2023/09/09 06:51:38;;;;;;;7.63;5.55;;;;;;;;;;5050367;28;20036;-86
2023/09/09 06:54:03;;;;;;;8.82;5.30;;;;;;;;;;5054339;28;20037;-87
2023/09/09 06:56:29;;;;;;;8.70;5.53;;;;;;;;;;5051754;28;20110;-87
2023/09/09 06:58:54;;;;;;;9.18;5.95;;;;;;;;;;5048894;28;20503;-86
2023/09/09 07:01:19;;;;;;;8.57;5.47;;;;;;;;;;5045290;28;20063;-86
2023/09/09 07:03:45;;;;;;;8.80;5.40;;;;;;;;;;5026651;28;20048;-86
2023/09/09 07:06:13;;;;;;;7.85;5.20;;;;;;;;;;5048296;28;20016;-86
2023/09/09 07:08:40;;;;;;;6.53;4.75;;;;;;;;;;5037615;28;20044;-86
2023/09/09 07:11:06;;;;;;;7.82;5.50;;;;;;;;;;5046995;28;20041;-87
2023/09/09 07:13:31;;;;;;;7.03;5.50;;;;;;;;;;5028818;28;20087;-85
2023/09/09 07:15:56;;;;;;;9.05;5.53;;;;;;;;;;5026807;28;20032;-86
2023/09/09 07:18:22;;;;;;;7.03;5.10;;;;;;;;;;5027322;28;20043;-85
2023/09/09 07:20:48;;;;;;;8.75;5.15;;;;;;;;;;5025768;28;20048;-85
2023/09/09 07:23:15;;;;;;;7.30;4.95;;;;;;;;;;5046528;28;20028;-86
2023/09/09 07:25:42;;;;;;;6.13;4.30;;;;;;;;;;5047269;28;20495;-86
2023/09/09 07:28:08;;;;;;;7.15;4.45;;;;;;;;;;5046414;28;20051;-85
2023/09/09 07:30:33;;;;;;;8.10;5.10;;;;;;;;;;5045706;28;20033;-85
2023/09/09 07:32:59;;;;;;;6.00;4.50;;;;;;;;;;5046560;28;20035;-85
2023/09/09 07:35:24;;;;;;;12.90;5.18;;;;;;;;;;5039115;28;20121;-84
2023/09/09 07:37:50;;;;;;;5.38;4.55;;;;;;;;;;5045280;28;20025;-85
2023/09/09 07:40:16;;;;;;;6.60;5.05;;;;;;;;;;5044809;28;20093;-84
2023/09/09 07:42:41;;;;;;;7.47;5.13;;;;;;;;;;5054236;28;20056;-85
2023/09/09 07:45:07;;;;;;;7.75;4.63;;;;;;;;;;5037507;28;20023;-85
2023/09/09 07:47:32;;;;;;;6.38;4.88;;;;;;;;;;5035155;28;20030;-84
2023/09/09 07:49:58;;;;;;;6.30;4.68;;;;;;;;;;5037852;28;20048;-85
2023/09/09 07:52:23;;;;;;;6.72;5.35;;;;;;;;;;5028940;28;20040;-85
2023/09/09 07:54:51;;;;;;;8.02;4.90;;;;;;;;;;5057416;28;20040;-86
2023/09/09 07:57:16;;;;;;;5.32;4.47;;;;;;;;;;5052635;28;20013;-84
2023/09/09 07:59:41;;;;;;;6.78;4.75;;;;;;;;;;5056271;28;20051;-85
2023/09/09 08:02:12;;;;;;;5.40;4.35;;;;;;;;;;5051055;28;20025;-85
2023/09/09 08:04:37;;;;;;;6.68;4.32;;;;;;;;;;5048384;28;20507;-85
2023/09/09 08:07:03;;;;;;;4.68;4.15;;;;;;;;;;5052246;28;20021;-85
2023/09/09 08:09:28;;;;;;;5.22;4.20;;;;;;;;;;5062224;28;20036;-85
2023/09/09 08:11:54;;;;;;;4.88;4.05;;;;;;;;;;5053901;28;20033;-84
2023/09/09 08:14:19;;;;;;;5.43;4.07;;;;;;;;;;5046680;28;20029;-85
2023/09/09 08:16:44;;;;;;;5.68;3.88;;;;;;;;;;5046662;28;20017;-85
2023/09/09 08:19:10;;;;;;;5.70;4.00;;;;;;;;;;5059568;28;20043;-85
2023/09/09 08:21:35;;;;;;;5.50;4.28;;;;;;;;;;5058040;28;20028;-86
2023/09/09 08:24:07;;;;;;;7.57;4.88;;;;;;;;;;5047892;28;20080;-85
2023/09/09 08:26:32;;;;;;;8.57;5.15;;;;;;;;;;5047459;28;20044;-85
2023/09/09 08:28:58;;;;;;;9.88;5.00;;;;;;;;;;5031018;28;20029;-84
2023/09/09 08:31:23;;;;;;;6.78;4.10;;;;;;;;;;5030296;28;20034;-85
2023/09/09 08:33:48;;;;;;;5.43;4.05;;;;;;;;;;5031418;28;20081;-85
2023/09/09 08:36:15;;;;;;;6.20;4.00;;;;;;;;;;5046642;28;20013;-84
2023/09/09 08:38:40;;;;;;;6.00;4.55;;;;;;;;;;5043382;28;20033;-85
2023/09/09 08:41:14;;;;;;;8.70;4.55;;;;;;;;;;5045046;28;20477;-83
2023/09/09 08:43:50;;;;;;;8.90;4.03;;;;;;;;;;5038379;28;20480;-85
2023/09/09 08:46:17;;;;;;;4.78;3.70;;;;;;;;;;5018886;28;20112;-85
2023/09/09 08:48:43;;;;;;;5.88;4.03;;;;;;;;;;5049014;28;20063;-86
2023/09/09 08:51:16;;;;;;;5.72;3.78;;;;;;;;;;5045400;28;20028;-84
2023/09/09 08:53:43;;;;;;;6.25;3.90;;;;;;;;;;5061822;28;20032;-85
2023/09/09 08:56:12;;;;;;;5.30;4.20;;;;;;;;;;5035221;28;20043;-85
2023/09/09 08:58:37;;;;;;;6.45;3.88;;;;;;;;;;5046546;28;20519;-86
2023/09/09 09:01:03;;;;;;;5.25;3.72;;;;;;;;;;5054543;28;20028;-85
2023/09/09 09:03:32;;;;;;;5.82;4.20;;;;;;;;;;5036688;28;20053;-85
2023/09/09 09:05:58;;;;;;;4.63;3.38;;;;;;;;;;5067451;28;20049;-85
2023/09/09 09:08:23;;;;;;;4.80;3.60;;;;;;;;;;5049625;28;20043;-85
2023/09/09 09:10:48;;;;;;;4.47;3.65;;;;;;;;;;5045720;28;20031;-86
2023/09/09 09:13:15;;;;;;;5.28;3.88;;;;;;;;;;5029217;28;20033;-86
2023/09/09 09:15:42;;;;;;;4.78;3.67;;;;;;;;;;5052887;28;20041;-86
2023/09/09 09:18:10;;;;;;;6.38;4.15;;;;;;;;;;5051170;28;20082;-84
2023/09/09 09:20:38;;;;;;;5.97;4.20;;;;;;;;;;5055401;28;20094;-87
2023/09/09 09:23:05;;;;;;;4.72;3.95;;;;;;;;;;5046239;28;20021;-89
2023/09/09 09:25:42;;;;;;;6.30;3.75;;;;;;;;;;5033348;28;20029;-88
2023/09/09 09:28:07;;;;;;;4.50;3.53;;;;;;;;;;5022671;28;20025;-88
2023/09/09 09:30:33;;;;;;;4.80;3.88;;;;;;;;;;5042161;28;20032;-88
2023/09/09 09:32:59;;;;;;;4.10;3.70;;;;;;;;;;5039648;28;20021;-88
2023/09/09 09:35:27;;;;;;;5.90;4.10;;;;;;;;;;5030259;28;20025;-88
2023/09/09 09:37:59;;;;;;;6.45;4.43;;;;;;;;;;5028340;28;20547;-87
2023/09/09 09:40:28;;;;;;;4.53;3.42;;;;;;;;;;5031799;28;20036;-87
2023/09/09 09:42:54;;;;;;;3.80;3.20;;;;;;;;;;5031817;28;20031;-88
2023/09/09 09:45:24;;;;;;;4.60;3.50;;;;;;;;;;5027195;28;20116;-89
2023/09/09 09:47:50;;;;;;;7.72;3.70;;;;;;;;;;5043951;28;20465;-89
2023/09/09 09:50:30;;;;;;;4.90;3.58;;;;;;;;;;5053072;28;20068;-90
2023/09/09 09:53:03;;;;;;;4.65;3.33;;;;;;;;;;5056350;28;20029;-89
2023/09/09 09:55:30;;;;;;;7.05;3.25;;;;;;;;;;5048886;28;20028;-89
2023/09/09 09:58:04;;;;;;;5.20;3.25;;;;;;;;;;5053079;28;20392;-88
2023/09/09 10:00:29;;;;;;;4.45;3.38;;;;;;;;;;5063339;28;20024;-89
2023/09/09 10:02:57;;;;;;;3.70;3.08;;;;;;;;;;5057146;28;20361;-88
2023/09/09 10:05:25;;;;;;;6.38;3.75;;;;;;;;;;5047252;28;20025;-89
2023/09/09 10:08:20;;;;;;;5.63;3.83;;;;;;;;;;5036773;28;20025;-88
2023/09/09 10:11:02;;;;;;;4.80;3.40;;;;;;;;;;5035115;28;20029;-85
2023/09/09 10:13:36;;;;;;;4.60;3.50;;;;;;;;;;5034331;28;20021;-86
2023/09/09 10:16:02;;;;;;;5.72;3.50;;;;;;;;;;5049774;28;20035;-86
2023/09/09 10:18:28;;;;;;;5.38;3.42;;;;;;;;;;5050189;28;20025;-85
2023/09/09 10:20:54;;;;;;;7.72;3.20;;;;;;;;;;5048492;28;20024;-86
2023/09/09 10:23:21;;;;;;;5.75;3.22;;;;;;;;;;5048259;28;20033;-86
2023/09/09 10:25:50;;;;;;;5.10;3.13;;;;;;;;;;5038288;28;20029;-86
2023/09/09 10:28:19;;;;;;;4.38;3.50;;;;;;;;;;5035880;28;20064;-85
2023/09/09 10:30:47;;;;;;;5.72;3.35;;;;;;;;;;5047892;28;20495;-86
2023/09/09 10:33:14;;;;;;;4.00;3.25;;;;;;;;;;5038117;28;20044;-86
2023/09/09 10:35:40;;;;;;;4.15;3.60;;;;;;;;;;5046006;28;20021;-86
2023/09/09 10:38:07;;;;;;;6.35;3.42;;;;;;;;;;5028761;28;20025;-86
2023/09/09 10:40:33;;;;;;;5.40;3.70;;;;;;;;;;5046699;28;20154;-86
2023/09/09 10:42:58;;;;;;;10.80;3.28;;;;;;;;;;5035161;28;20438;-86
2023/09/09 10:45:28;;;;;;;6.45;3.45;;;;;;;;;;5044877;28;20032;-86
2023/09/09 10:48:01;;;;;;;4.87;3.00;;;;;;;;;;5040397;28;20022;-87
2023/09/09 10:50:50;;;;;;;2.97;2.70;;;;;;;;;;5033558;28;20419;-86
2023/09/09 10:53:25;;;;;;;4.93;3.90;;;;;;;;;;5023338;28;20021;-86
2023/09/09 10:55:54;;;;;;;4.55;2.88;;;;;;;;;;5033603;28;20100;-86
2023/09/09 10:58:20;;;;;;;4.03;3.13;;;;;;;;;;5029685;28;20036;-86
2023/09/09 11:00:48;;;;;;;4.68;2.83;;;;;;;;;;5050153;28;20472;-86
2023/09/09 11:03:22;;;;;;;3.65;2.90;;;;;;;;;;5029757;28;20473;-86
2023/09/09 11:06:05;;;;;;;4.72;2.80;;;;;;;;;;5025878;28;20025;-86
2023/09/09 11:08:59;;;;;;;4.57;3.08;;;;;;;;;;5052512;28;20032;-86
2023/09/09 11:11:26;;;;;;;3.72;2.80;;;;;;;;;;5044934;28;20037;-87
2023/09/09 11:13:54;;;;;;;4.65;2.92;;;;;;;;;;5043493;28;20115;-87
2023/09/09 11:16:53;;;;;;;3.92;2.80;;;;;;;;;;5053470;28;20033;-86
2023/09/09 11:19:22;;;;;;;7.45;2.65;;;;;;;;;;5027720;28;20025;-86
2023/09/09 11:21:49;;;;;;;2.97;2.67;;;;;;;;;;5045846;28;20037;-87
2023/09/09 11:24:15;;;;;;;4.82;2.85;;;;;;;;;;5049651;28;20032;-86
2023/09/09 11:26:43;;;;;;;3.17;2.63;;;;;;;;;;5041843;28;20036;-86
2023/09/09 11:29:09;;;;;;;6.45;2.80;;;;;;;;;;5038282;28;20021;-87
2023/09/09 11:31:34;;;;;;;5.22;3.30;;;;;;;;;;5037067;28;20514;-86
2023/09/09 11:34:00;;;;;;;3.55;2.92;;;;;;;;;;5042751;28;20029;-87
2023/09/09 11:36:27;;;;;;;5.53;3.05;;;;;;;;;;5030659;28;20053;-87
2023/09/09 11:38:55;;;;;;;5.90;2.90;;;;;;;;;;5042448;28;20029;-86
2023/09/09 11:41:22;;;;;;;4.82;3.00;;;;;;;;;;5038495;28;20024;-86
2023/09/09 11:44:03;;;;;;;4.00;2.92;;;;;;;;;;5044889;28;20479;-86
2023/09/09 11:46:41;;;;;;;6.07;3.33;;;;;;;;;;5020984;28;20025;-86
2023/09/09 11:49:09;;;;;;;4.65;2.67;;;;;;;;;;5030980;28;20126;-86
2023/09/09 11:51:35;;;;;;;3.17;2.60;;;;;;;;;;5044826;28;20029;-86
2023/09/09 11:54:08;;;;;;;3.72;2.78;;;;;;;;;;5042548;28;20129;-86
2023/09/09 11:56:34;;;;;;;5.40;2.70;;;;;;;;;;5039720;28;20100;-86
2023/09/09 11:59:09;;;;;;;3.25;2.60;;;;;;;;;;5037760;28;20045;-86
2023/09/09 12:01:45;;;;;;;3.17;2.63;;;;;;;;;;5028855;28;20093;-86
2023/09/09 12:04:12;;;;;;;6.10;2.72;;;;;;;;;;5047212;28;20025;-87
2023/09/09 12:06:40;;;;;;;5.43;2.90;;;;;;;;;;5026072;28;20400;-85
2023/09/09 12:09:07;;;;;;;3.85;2.67;;;;;;;;;;5062266;28;20028;-86
2023/09/09 12:11:34;;;;;;;7.95;2.83;;;;;;;;;;5023966;28;20025;-87
2023/09/09 12:14:01;;;;;;;4.70;2.95;;;;;;;;;;5056741;28;20033;-87
2023/09/09 12:16:31;;;;;;;3.17;2.80;;;;;;;;;;5069518;28;20033;-86
2023/09/09 12:18:57;;;;;;;5.30;3.27;;;;;;;;;;5050594;28;20021;-87
2023/09/09 12:21:23;;;;;;;6.95;2.70;;;;;;;;;;5053791;28;20073;-87
2023/09/09 12:23:49;;;;;;;4.88;3.13;;;;;;;;;;5040635;28;20178;-87
2023/09/09 12:26:18;;;;;;;4.30;2.78;;;;;;;;;;5054882;28;20017;-88
2023/09/09 12:29:07;;;;;;;7.75;2.97;;;;;;;;;;5049326;28;20123;-88
2023/09/09 12:31:48;;;;;;;4.63;3.10;;;;;;;;;;5055088;28;20029;-89
2023/09/09 12:34:17;;;;;;;3.87;2.80;;;;;;;;;;5028828;28;20252;-88
2023/09/09 12:36:43;;;;;;;4.63;2.75;;;;;;;;;;5033171;28;20033;-89
2023/09/09 12:39:09;;;;;;;5.45;3.08;;;;;;;;;;5046272;28;20025;-89
2023/09/09 12:41:34;;;;;;;3.97;2.30;;;;;;;;;;5053289;28;20053;-89
2023/09/09 12:44:10;;;;;;;5.68;2.90;;;;;;;;;;5047936;28;20456;-87
2023/09/09 12:46:35;;;;;;;3.90;3.00;;;;;;;;;;5062862;28;20025;-89
2023/09/09 12:49:04;;;;;;;4.82;3.15;;;;;;;;;;5034022;28;20036;-87
2023/09/09 12:51:32;;;;;;;7.82;2.83;;;;;;;;;;5050757;28;20060;-88
2023/09/09 12:53:58;;;;;;;6.40;2.92;;;;;;;;;;5047426;28;20087;-86
2023/09/09 12:56:25;;;;;;;5.38;3.00;;;;;;;;;;5051412;28;20086;-87
2023/09/09 12:58:50;;;;;;;4.72;2.92;;;;;;;;;;5019966;28;20124;-87
2023/09/09 13:01:16;;;;;;;4.78;3.22;;;;;;;;;;5052006;28;20122;-86
2023/09/09 13:03:43;;;;;;;3.55;2.78;;;;;;;;;;5034135;28;20035;-86
2023/09/09 13:06:09;;;;;;;4.13;2.97;;;;;;;;;;5028340;28;20013;-86
2023/09/09 13:08:35;;;;;;;3.90;2.85;;;;;;;;;;5051744;28;20140;-87
2023/09/09 13:11:01;;;;;;;5.05;3.38;;;;;;;;;;5043904;28;20448;-87
2023/09/09 13:13:26;;;;;;;4.20;2.85;;;;;;;;;;5032665;28;20037;-87
2023/09/09 13:15:52;;;;;;;5.53;2.60;;;;;;;;;;5049953;28;20100;-87
2023/09/09 13:18:18;;;;;;;4.15;2.92;;;;;;;;;;5030516;28;20021;-87
2023/09/09 13:20:44;;;;;;;7.07;2.70;;;;;;;;;;5051548;28;20060;-86
2023/09/09 13:23:10;;;;;;;3.28;2.80;;;;;;;;;;5054075;28;20025;-87
2023/09/09 13:25:35;;;;;;;3.50;2.80;;;;;;;;;;5033584;28;20029;-86
2023/09/09 13:28:00;;;;;;;5.65;2.88;;;;;;;;;;5041120;28;20021;-86
2023/09/09 13:30:26;;;;;;;8.50;3.00;;;;;;;;;;5031856;28;20066;-86
2023/09/09 13:32:51;;;;;;;5.00;3.22;;;;;;;;;;5044273;28;20094;-86
2023/09/09 13:35:16;;;;;;;7.45;2.92;;;;;;;;;;5041429;28;20029;-87
2023/09/09 13:37:42;;;;;;;5.07;2.92;;;;;;;;;;5032799;28;20025;-87
2023/09/09 13:40:08;;;;;;;4.65;2.83;;;;;;;;;;5024438;28;20301;-86
2023/09/09 13:42:33;;;;;;;4.32;2.75;;;;;;;;;;5044749;28;20067;-86
2023/09/09 13:44:59;;;;;;;3.88;2.83;;;;;;;;;;5049973;28;20068;-87
2023/09/09 13:47:24;;;;;;;4.50;3.17;;;;;;;;;;5024341;28;20021;-86
2023/09/09 13:49:50;;;;;;;4.75;3.13;;;;;;;;;;5038406;28;20098;-86
2023/09/09 13:52:15;;;;;;;4.55;2.88;;;;;;;;;;5031122;28;20023;-86
2023/09/09 13:54:40;;;;;;;5.20;3.13;;;;;;;;;;5035878;28;20059;-85
2023/09/09 13:57:06;;;;;;;4.07;2.58;;;;;;;;;;5047800;28;20057;-86
2023/09/09 13:59:32;;;;;;;8.13;2.67;;;;;;;;;;5026469;28;20159;-86
2023/09/09 14:01:58;;;;;;;4.15;2.78;;;;;;;;;;5048447;28;20540;-86
2023/09/09 14:04:25;;;;;;;4.72;2.95;;;;;;;;;;5046591;28;20596;-86
2023/09/09 14:06:51;;;;;;;5.32;2.83;;;;;;;;;;5014793;28;20017;-86
2023/09/09 14:09:16;;;;;;;4.63;2.90;;;;;;;;;;5025441;28;20025;-86
2023/09/09 14:11:41;;;;;;;7.05;3.10;;;;;;;;;;5044994;28;20036;-86
2023/09/09 14:14:07;;;;;;;3.17;2.45;;;;;;;;;;5032947;28;20021;-86
2023/09/09 14:16:32;;;;;;;6.47;2.80;;;;;;;;;;5038969;28;20027;-86
2023/09/09 14:18:57;;;;;;;6.05;3.08;;;;;;;;;;5042564;28;20104;-86
2023/09/09 14:21:23;;;;;;;5.40;3.00;;;;;;;;;;5038800;28;20048;-86
2023/09/09 14:23:48;;;;;;;7.15;3.40;;;;;;;;;;5023545;28;20445;-87
2023/09/09 14:26:16;;;;;;;7.32;3.58;;;;;;;;;;5024708;28;20025;-87
2023/09/09 14:28:45;;;;;;;3.63;2.60;;;;;;;;;;5040489;28;20033;-86
2023/09/09 14:31:10;;;;;;;4.75;2.75;;;;;;;;;;5034492;28;20029;-87
2023/09/09 14:33:36;;;;;;;7.75;2.80;;;;;;;;;;5052634;28;20048;-87
2023/09/09 14:36:04;;;;;;;4.10;2.72;;;;;;;;;;5043754;28;20088;-87
2023/09/09 14:38:29;;;;;;;4.32;2.70;;;;;;;;;;5037067;28;20025;-87
2023/09/09 14:40:55;;;;;;;4.88;2.58;;;;;;;;;;5039063;28;20641;-87
2023/09/09 14:43:20;;;;;;;3.67;2.50;;;;;;;;;;5048582;28;20419;-87